sensor_id;sensor_type;location;lat;lon;timestamp;temperature;humidity
58809;DHT22;44579;51.672;7.834;2023-04-01T00:02:22;11.00;84.20
58809;DHT22;44579;51.672;7.834;2023-04-01T00:04:48;11.00;84.10
58809;DHT22;44579;51.672;7.834;2023-04-01T00:07:15;11.10;84.10
58809;DHT22;44579;51.672;7.834;2023-04-01T00:09:42;11.00;84.20
58809;DHT22;44579;51.672;7.834;2023-04-01T00:12:09;11.00;84.10
58809;DHT22;44579;51.672;7.834;2023-04-01T00:14:36;11.00;84.10
58809;DHT22;44579;51.672;7.834;2023-04-01T00:17:03;11.00;84.20
58809;DHT22;44579;51.672;7.834;2023-04-01T00:19:30;11.00;84.30
58809;DHT22;44579;51.672;7.834;2023-04-01T00:21:58;11.00;84.30
58809;DHT22;44579;51.672;7.834;2023-04-01T00:24:25;10.90;84.20
58809;DHT22;44579;51.672;7.834;2023-04-01T00:26:52;11.00;84.30
58809;DHT22;44579;51.672;7.834;2023-04-01T00:29:19;11.00;84.30
58809;DHT22;44579;51.672;7.834;2023-04-01T00:31:45;11.00;84.10
58809;DHT22;44579;51.672;7.834;2023-04-01T00:34:12;10.90;84.20
58809;DHT22;44579;51.672;7.834;2023-04-01T00:36:39;10.90;84.20
58809;DHT22;44579;51.672;7.834;2023-04-01T00:39:06;10.90;84.20
58809;DHT22;44579;51.672;7.834;2023-04-01T00:41:32;10.90;84.30
58809;DHT22;44579;51.672;7.834;2023-04-01T00:44:19;10.90;84.30
58809;DHT22;44579;51.672;7.834;2023-04-01T00:46:47;10.90;84.40
58809;DHT22;44579;51.672;7.834;2023-04-01T00:49:14;10.80;84.30
58809;DHT22;44579;51.672;7.834;2023-04-01T00:51:42;10.80;84.60
58809;DHT22;44579;51.672;7.834;2023-04-01T00:54:09;10.80;84.60
58809;DHT22;44579;51.672;7.834;2023-04-01T00:56:38;10.70;84.50
58809;DHT22;44579;51.672;7.834;2023-04-01T00:59:09;10.70;84.70
58809;DHT22;44579;51.672;7.834;2023-04-01T01:01:37;10.70;84.80
58809;DHT22;44579;51.672;7.834;2023-04-01T01:04:04;10.70;84.70
58809;DHT22;44579;51.672;7.834;2023-04-01T01:06:50;10.70;84.80
58809;DHT22;44579;51.672;7.834;2023-04-01T01:11:48;10.70;84.60
58809;DHT22;44579;51.672;7.834;2023-04-01T01:14:24;10.70;84.70
58809;DHT22;44579;51.672;7.834;2023-04-01T01:16:53;10.70;84.60
58809;DHT22;44579;51.672;7.834;2023-04-01T01:19:29;10.60;84.60
58809;DHT22;44579;51.672;7.834;2023-04-01T01:22:05;10.70;84.60
58809;DHT22;44579;51.672;7.834;2023-04-01T01:24:39;10.70;84.50
58809;DHT22;44579;51.672;7.834;2023-04-01T01:27:11;10.60;84.50
58809;DHT22;44579;51.672;7.834;2023-04-01T01:29:43;10.60;84.70
58809;DHT22;44579;51.672;7.834;2023-04-01T01:32:26;10.60;84.80
58809;DHT22;44579;51.672;7.834;2023-04-01T01:37:30;10.50;84.80
58809;DHT22;44579;51.672;7.834;2023-04-01T01:40:04;10.50;84.90
58809;DHT22;44579;51.672;7.834;2023-04-01T01:42:34;10.50;84.90
58809;DHT22;44579;51.672;7.834;2023-04-01T01:45:02;10.50;85.00
58809;DHT22;44579;51.672;7.834;2023-04-01T01:47:30;10.50;85.10
58809;DHT22;44579;51.672;7.834;2023-04-01T01:49:58;10.40;85.00
58809;DHT22;44579;51.672;7.834;2023-04-01T01:52:26;10.40;85.10
58809;DHT22;44579;51.672;7.834;2023-04-01T01:54:57;10.40;85.20
58809;DHT22;44579;51.672;7.834;2023-04-01T01:57:31;10.40;85.30
58809;DHT22;44579;51.672;7.834;2023-04-01T02:00:05;10.40;85.10
58809;DHT22;44579;51.672;7.834;2023-04-01T02:02:41;10.50;85.00
58809;DHT22;44579;51.672;7.834;2023-04-01T02:05:09;10.50;84.90
58809;DHT22;44579;51.672;7.834;2023-04-01T02:07:37;10.40;84.90
58809;DHT22;44579;51.672;7.834;2023-04-01T02:10:06;10.50;85.10
58809;DHT22;44579;51.672;7.834;2023-04-01T02:12:33;10.50;85.00
58809;DHT22;44579;51.672;7.834;2023-04-01T02:15:11;10.50;85.00
58809;DHT22;44579;51.672;7.834;2023-04-01T02:17:42;10.50;85.00
58809;DHT22;44579;51.672;7.834;2023-04-01T02:20:17;10.50;85.00
58809;DHT22;44579;51.672;7.834;2023-04-01T02:22:49;10.50;84.80
58809;DHT22;44579;51.672;7.834;2023-04-01T02:25:21;10.50;84.90
58809;DHT22;44579;51.672;7.834;2023-04-01T02:27:50;10.50;85.00
58809;DHT22;44579;51.672;7.834;2023-04-01T02:30:16;10.40;85.10
58809;DHT22;44579;51.672;7.834;2023-04-01T02:32:44;10.40;85.10
58809;DHT22;44579;51.672;7.834;2023-04-01T02:35:13;10.40;85.10
58809;DHT22;44579;51.672;7.834;2023-04-01T02:37:40;10.40;85.10
58809;DHT22;44579;51.672;7.834;2023-04-01T02:40:10;10.40;85.00
58809;DHT22;44579;51.672;7.834;2023-04-01T02:42:37;10.40;85.70
58809;DHT22;44579;51.672;7.834;2023-04-01T02:45:05;10.50;84.80
58809;DHT22;44579;51.672;7.834;2023-04-01T02:47:31;10.50;84.80
58809;DHT22;44579;51.672;7.834;2023-04-01T02:49:58;10.50;84.70
58809;DHT22;44579;51.672;7.834;2023-04-01T02:52:26;10.50;84.70
58809;DHT22;44579;51.672;7.834;2023-04-01T02:54:53;10.40;84.80
58809;DHT22;44579;51.672;7.834;2023-04-01T02:57:20;10.40;84.90
58809;DHT22;44579;51.672;7.834;2023-04-01T02:59:47;10.50;85.00
58809;DHT22;44579;51.672;7.834;2023-04-01T03:02:14;10.40;84.90
58809;DHT22;44579;51.672;7.834;2023-04-01T03:04:41;10.40;84.90
58809;DHT22;44579;51.672;7.834;2023-04-01T03:07:08;10.50;84.90
58809;DHT22;44579;51.672;7.834;2023-04-01T03:09:36;10.50;84.90
58809;DHT22;44579;51.672;7.834;2023-04-01T03:12:04;10.40;84.80
58809;DHT22;44579;51.672;7.834;2023-04-01T03:14:37;10.50;84.90
58809;DHT22;44579;51.672;7.834;2023-04-01T03:17:03;10.40;84.80
58809;DHT22;44579;51.672;7.834;2023-04-01T03:19:31;10.40;84.90
58809;DHT22;44579;51.672;7.834;2023-04-01T03:22:02;10.40;85.00
58809;DHT22;44579;51.672;7.834;2023-04-01T03:24:29;10.40;85.10
58809;DHT22;44579;51.672;7.834;2023-04-01T03:26:55;10.40;85.00
58809;DHT22;44579;51.672;7.834;2023-04-01T03:29:22;10.40;84.90
58809;DHT22;44579;51.672;7.834;2023-04-01T03:31:49;10.40;85.00
58809;DHT22;44579;51.672;7.834;2023-04-01T03:34:16;10.40;84.90
58809;DHT22;44579;51.672;7.834;2023-04-01T03:36:43;10.40;85.00
58809;DHT22;44579;51.672;7.834;2023-04-01T03:39:11;10.40;85.10
58809;DHT22;44579;51.672;7.834;2023-04-01T03:41:40;10.40;85.10
58809;DHT22;44579;51.672;7.834;2023-04-01T03:44:07;10.40;85.00
58809;DHT22;44579;51.672;7.834;2023-04-01T03:46:34;10.40;85.00
58809;DHT22;44579;51.672;7.834;2023-04-01T03:49:01;10.40;85.00
58809;DHT22;44579;51.672;7.834;2023-04-01T03:51:28;10.40;85.00
58809;DHT22;44579;51.672;7.834;2023-04-01T03:53:55;10.40;85.10
58809;DHT22;44579;51.672;7.834;2023-04-01T03:56:22;10.40;85.10
58809;DHT22;44579;51.672;7.834;2023-04-01T03:58:49;10.40;85.00
58809;DHT22;44579;51.672;7.834;2023-04-01T04:01:17;10.40;85.10
58809;DHT22;44579;51.672;7.834;2023-04-01T04:03:45;10.50;85.10
58809;DHT22;44579;51.672;7.834;2023-04-01T04:06:13;10.40;85.00
58809;DHT22;44579;51.672;7.834;2023-04-01T04:08:40;10.40;85.00
58809;DHT22;44579;51.672;7.834;2023-04-01T04:11:07;10.40;84.90
58809;DHT22;44579;51.672;7.834;2023-04-01T04:13:37;10.40;84.80
58809;DHT22;44579;51.672;7.834;2023-04-01T04:16:04;10.40;84.80
58809;DHT22;44579;51.672;7.834;2023-04-01T04:18:32;10.50;84.70
58809;DHT22;44579;51.672;7.834;2023-04-01T04:20:59;10.50;84.70
58809;DHT22;44579;51.672;7.834;2023-04-01T04:23:26;10.50;84.70
58809;DHT22;44579;51.672;7.834;2023-04-01T04:26:03;10.50;84.80
58809;DHT22;44579;51.672;7.834;2023-04-01T04:28:32;10.40;84.70
58809;DHT22;44579;51.672;7.834;2023-04-01T04:30:59;10.40;84.70
58809;DHT22;44579;51.672;7.834;2023-04-01T04:33:26;10.50;84.80
58809;DHT22;44579;51.672;7.834;2023-04-01T04:35:56;10.50;84.70
58809;DHT22;44579;51.672;7.834;2023-04-01T04:38:24;10.50;84.80
58809;DHT22;44579;51.672;7.834;2023-04-01T04:40:51;10.40;84.80
58809;DHT22;44579;51.672;7.834;2023-04-01T04:43:18;10.40;85.00
58809;DHT22;44579;51.672;7.834;2023-04-01T04:45:46;10.40;85.10
58809;DHT22;44579;51.672;7.834;2023-04-01T04:48:14;10.30;85.10
58809;DHT22;44579;51.672;7.834;2023-04-01T04:50:46;10.30;85.20
58809;DHT22;44579;51.672;7.834;2023-04-01T04:53:14;10.30;85.20
58809;DHT22;44579;51.672;7.834;2023-04-01T04:55:48;10.40;85.20
58809;DHT22;44579;51.672;7.834;2023-04-01T04:58:34;10.40;85.10
58809;DHT22;44579;51.672;7.834;2023-04-01T05:01:05;10.30;84.90
58809;DHT22;44579;51.672;7.834;2023-04-01T05:03:32;10.30;85.00
58809;DHT22;44579;51.672;7.834;2023-04-01T05:05:59;10.30;85.10
58809;DHT22;44579;51.672;7.834;2023-04-01T05:08:26;10.30;85.20
58809;DHT22;44579;51.672;7.834;2023-04-01T05:10:53;10.30;85.20
58809;DHT22;44579;51.672;7.834;2023-04-01T05:13:19;10.20;85.10
58809;DHT22;44579;51.672;7.834;2023-04-01T05:15:47;10.20;85.30
58809;DHT22;44579;51.672;7.834;2023-04-01T05:18:16;10.20;85.30
58809;DHT22;44579;51.672;7.834;2023-04-01T05:20:50;10.20;85.40
58809;DHT22;44579;51.672;7.834;2023-04-01T05:23:18;10.20;85.40
58809;DHT22;44579;51.672;7.834;2023-04-01T05:25:47;10.30;85.40
58809;DHT22;44579;51.672;7.834;2023-04-01T05:28:15;10.30;85.30
58809;DHT22;44579;51.672;7.834;2023-04-01T05:30:44;10.30;85.20
58809;DHT22;44579;51.672;7.834;2023-04-01T05:33:26;10.30;85.20
58809;DHT22;44579;51.672;7.834;2023-04-01T05:35:53;10.30;85.20
58809;DHT22;44579;51.672;7.834;2023-04-01T05:38:20;10.30;85.40
58809;DHT22;44579;51.672;7.834;2023-04-01T05:40:47;10.30;85.50
58809;DHT22;44579;51.672;7.834;2023-04-01T05:43:14;10.30;85.40
58809;DHT22;44579;51.672;7.834;2023-04-01T05:45:48;10.30;85.30
58809;DHT22;44579;51.672;7.834;2023-04-01T05:48:35;10.40;85.30
58809;DHT22;44579;51.672;7.834;2023-04-01T05:51:04;10.40;85.30
58809;DHT22;44579;51.672;7.834;2023-04-01T05:53:31;10.40;85.30
58809;DHT22;44579;51.672;7.834;2023-04-01T05:56:01;10.40;85.30
58809;DHT22;44579;51.672;7.834;2023-04-01T05:58:33;10.40;85.40
58809;DHT22;44579;51.672;7.834;2023-04-01T06:01:05;10.40;85.50
58809;DHT22;44579;51.672;7.834;2023-04-01T06:03:40;10.40;85.60
58809;DHT22;44579;51.672;7.834;2023-04-01T06:06:14;10.40;85.50
58809;DHT22;44579;51.672;7.834;2023-04-01T06:08:43;10.40;85.50
58809;DHT22;44579;51.672;7.834;2023-04-01T06:13:43;10.50;85.50
58809;DHT22;44579;51.672;7.834;2023-04-01T06:18:52;10.50;85.40
58809;DHT22;44579;51.672;7.834;2023-04-01T06:21:37;10.50;85.60
58809;DHT22;44579;51.672;7.834;2023-04-01T06:24:15;10.50;85.60
58809;DHT22;44579;51.672;7.834;2023-04-01T06:29:25;10.50;85.80
58809;DHT22;44579;51.672;7.834;2023-04-01T06:31:59;10.50;85.60
58809;DHT22;44579;51.672;7.834;2023-04-01T06:34:39;10.60;85.70
58809;DHT22;44579;51.672;7.834;2023-04-01T06:37:28;10.70;85.80
58809;DHT22;44579;51.672;7.834;2023-04-01T06:42:57;10.70;85.80
58809;DHT22;44579;51.672;7.834;2023-04-01T06:46:02;10.70;85.80
58809;DHT22;44579;51.672;7.834;2023-04-01T06:49:04;10.80;85.80
58809;DHT22;44579;51.672;7.834;2023-04-01T06:52:42;10.80;85.70
58809;DHT22;44579;51.672;7.834;2023-04-01T06:55:24;10.80;85.80
58809;DHT22;44579;51.672;7.834;2023-04-01T06:58:27;10.90;85.80
58809;DHT22;44579;51.672;7.834;2023-04-01T07:01:00;11.00;85.80
58809;DHT22;44579;51.672;7.834;2023-04-01T07:03:48;11.10;85.80
58809;DHT22;44579;51.672;7.834;2023-04-01T07:06:50;11.10;85.80
58809;DHT22;44579;51.672;7.834;2023-04-01T07:09:11;11.10;85.90
58809;DHT22;44579;51.672;7.834;2023-04-01T07:12:15;11.20;85.90
58809;DHT22;44579;51.672;7.834;2023-04-01T07:15:15;11.20;86.20
58809;DHT22;44579;51.672;7.834;2023-04-01T07:17:43;11.30;86.30
58809;DHT22;44579;51.672;7.834;2023-04-01T07:20:46;11.40;86.20
58809;DHT22;44579;51.672;7.834;2023-04-01T07:23:06;11.50;86.20
58809;DHT22;44579;51.672;7.834;2023-04-01T07:26:00;11.60;86.10
58809;DHT22;44579;51.672;7.834;2023-04-01T07:28:53;11.70;86.30
58809;DHT22;44579;51.672;7.834;2023-04-01T07:34:23;11.70;86.40
58809;DHT22;44579;51.672;7.834;2023-04-01T07:37:14;11.80;86.40
58809;DHT22;44579;51.672;7.834;2023-04-01T07:48:19;11.90;87.30
58809;DHT22;44579;51.672;7.834;2023-04-01T07:55:50;11.90;87.70
58809;DHT22;44579;51.672;7.834;2023-04-01T08:04:05;11.90;88.00
58809;DHT22;44579;51.672;7.834;2023-04-01T08:06:41;11.90;88.00
58809;DHT22;44579;51.672;7.834;2023-04-01T08:09:15;12.00;88.10
58809;DHT22;44579;51.672;7.834;2023-04-01T08:23:11;12.00;88.80
58809;DHT22;44579;51.672;7.834;2023-04-01T08:25:44;12.00;88.80
58809;DHT22;44579;51.672;7.834;2023-04-01T08:28:59;12.00;88.80
58809;DHT22;44579;51.672;7.834;2023-04-01T08:31:09;12.10;88.90
58809;DHT22;44579;51.672;7.834;2023-04-01T08:33:41;12.00;88.90
58809;DHT22;44579;51.672;7.834;2023-04-01T08:36:15;12.00;89.00
58809;DHT22;44579;51.672;7.834;2023-04-01T08:38:54;12.00;89.00
58809;DHT22;44579;51.672;7.834;2023-04-01T08:44:44;11.90;89.20
58809;DHT22;44579;51.672;7.834;2023-04-01T08:47:13;11.90;89.30
58809;DHT22;44579;51.672;7.834;2023-04-01T08:55:42;11.80;89.00
58809;DHT22;44579;51.672;7.834;2023-04-01T08:58:58;11.90;88.90
58809;DHT22;44579;51.672;7.834;2023-04-01T09:03:57;11.90;88.80
58809;DHT22;44579;51.672;7.834;2023-04-01T09:06:29;11.90;88.70
58809;DHT22;44579;51.672;7.834;2023-04-01T09:15:00;11.90;88.70
58809;DHT22;44579;51.672;7.834;2023-04-01T09:28:42;11.90;89.00
58809;DHT22;44579;51.672;7.834;2023-04-01T09:31:32;12.00;89.10
58809;DHT22;44579;51.672;7.834;2023-04-01T09:34:30;12.00;89.00
58809;DHT22;44579;51.672;7.834;2023-04-01T09:37:09;12.20;88.90
58809;DHT22;44579;51.672;7.834;2023-04-01T09:39:42;12.20;88.80
58809;DHT22;44579;51.672;7.834;2023-04-01T09:42:31;12.20;88.70
58809;DHT22;44579;51.672;7.834;2023-04-01T09:55:52;12.60;88.90
58809;DHT22;44579;51.672;7.834;2023-04-01T10:04:05;12.60;89.20
58809;DHT22;44579;51.672;7.834;2023-04-01T10:09:32;12.50;89.50
58809;DHT22;44579;51.672;7.834;2023-04-01T10:17:22;12.30;89.80
58809;DHT22;44579;51.672;7.834;2023-04-01T10:22:59;12.20;90.00
58809;DHT22;44579;51.672;7.834;2023-04-01T10:34:05;12.10;90.00
58809;DHT22;44579;51.672;7.834;2023-04-01T10:42:22;12.10;89.70
58809;DHT22;44579;51.672;7.834;2023-04-01T10:45:24;12.20;89.60
58809;DHT22;44579;51.672;7.834;2023-04-01T10:53:06;12.40;89.40
58809;DHT22;44579;51.672;7.834;2023-04-01T10:56:14;12.50;89.30
58809;DHT22;44579;51.672;7.834;2023-04-01T11:13:16;12.70;89.60
58809;DHT22;44579;51.672;7.834;2023-04-01T11:18:23;12.70;89.80
58809;DHT22;44579;51.672;7.834;2023-04-01T11:23:45;12.70;90.00
58809;DHT22;44579;51.672;7.834;2023-04-01T11:35:03;12.80;89.90
58809;DHT22;44579;51.672;7.834;2023-04-01T11:37:54;12.80;90.00
58809;DHT22;44579;51.672;7.834;2023-04-01T11:49:33;12.80;90.00
58809;DHT22;44579;51.672;7.834;2023-04-01T11:54:48;12.90;90.10
58809;DHT22;44579;51.672;7.834;2023-04-01T11:59:58;13.00;90.20
58809;DHT22;44579;51.672;7.834;2023-04-01T12:05:45;13.10;90.20
58809;DHT22;44579;51.672;7.834;2023-04-01T12:11:09;13.10;90.20
58809;DHT22;44579;51.672;7.834;2023-04-01T12:16:18;13.00;90.30
58809;DHT22;44579;51.672;7.834;2023-04-01T12:32:03;13.10;90.10
58809;DHT22;44579;51.672;7.834;2023-04-01T12:34:42;13.00;90.10
58809;DHT22;44579;51.672;7.834;2023-04-01T12:43:20;13.20;90.00
58809;DHT22;44579;51.672;7.834;2023-04-01T12:48:46;13.40;90.00
58809;DHT22;44579;51.672;7.834;2023-04-01T12:51:23;13.50;89.80
58809;DHT22;44579;51.672;7.834;2023-04-01T13:09:56;13.60;90.20
58809;DHT22;44579;51.672;7.834;2023-04-01T13:25:06;13.30;90.50
58809;DHT22;44579;51.672;7.834;2023-04-01T13:27:45;13.20;90.50
58809;DHT22;44579;51.672;7.834;2023-04-01T13:35:58;13.40;90.50
58809;DHT22;44579;51.672;7.834;2023-04-01T13:43:39;13.30;90.30
58809;DHT22;44579;51.672;7.834;2023-04-01T13:48:53;13.10;90.50
58809;DHT22;44579;51.672;7.834;2023-04-01T13:59:11;13.10;90.50
58809;DHT22;44579;51.672;7.834;2023-04-01T14:01:49;13.10;90.50
58809;DHT22;44579;51.672;7.834;2023-04-01T14:14:52;12.80;90.50
58809;DHT22;44579;51.672;7.834;2023-04-01T14:25:21;12.70;90.50
58809;DHT22;44579;51.672;7.834;2023-04-01T14:30:46;12.60;90.50
58809;DHT22;44579;51.672;7.834;2023-04-01T14:33:21;12.60;90.50
58809;DHT22;44579;51.672;7.834;2023-04-01T14:35:56;12.60;90.40
58809;DHT22;44579;51.672;7.834;2023-04-01T14:38:34;12.60;90.40
58809;DHT22;44579;51.672;7.834;2023-04-01T14:49:02;12.60;90.30
58809;DHT22;44579;51.672;7.834;2023-04-01T14:51:34;12.60;90.30
58809;DHT22;44579;51.672;7.834;2023-04-01T14:54:16;12.60;90.30
58809;DHT22;44579;51.672;7.834;2023-04-01T14:56:50;12.60;90.40
58809;DHT22;44579;51.672;7.834;2023-04-01T15:04:33;12.80;90.30
58809;DHT22;44579;51.672;7.834;2023-04-01T15:07:11;12.90;90.20
58809;DHT22;44579;51.672;7.834;2023-04-01T15:09:57;12.90;90.20
58809;DHT22;44579;51.672;7.834;2023-04-01T15:18:18;13.00;90.10
58809;DHT22;44579;51.672;7.834;2023-04-01T15:20:46;13.10;90.20
58809;DHT22;44579;51.672;7.834;2023-04-01T15:23:19;13.00;90.20
58809;DHT22;44579;51.672;7.834;2023-04-01T15:28:36;13.00;90.20
58809;DHT22;44579;51.672;7.834;2023-04-01T15:41:24;12.70;90.30
58809;DHT22;44579;51.672;7.834;2023-04-01T15:43:53;12.70;90.40
58809;DHT22;44579;51.672;7.834;2023-04-01T15:51:56;12.60;90.30
58809;DHT22;44579;51.672;7.834;2023-04-01T15:57:14;12.50;90.30
58809;DHT22;44579;51.672;7.834;2023-04-01T16:08:10;12.50;90.60
58809;DHT22;44579;51.672;7.834;2023-04-01T16:13:46;12.50;90.10
58809;DHT22;44579;51.672;7.834;2023-04-01T16:19:25;12.40;90.10
58809;DHT22;44579;51.672;7.834;2023-04-01T16:21:41;12.40;90.00
58809;DHT22;44579;51.672;7.834;2023-04-01T16:26:44;12.50;90.00
58809;DHT22;44579;51.672;7.834;2023-04-01T16:29:18;12.50;89.90
58809;DHT22;44579;51.672;7.834;2023-04-01T16:34:19;12.40;89.90
58809;DHT22;44579;51.672;7.834;2023-04-01T16:36:50;12.30;90.00
58809;DHT22;44579;51.672;7.834;2023-04-01T16:39:37;12.20;90.10
58809;DHT22;44579;51.672;7.834;2023-04-01T16:44:50;12.20;90.10
58809;DHT22;44579;51.672;7.834;2023-04-01T16:47:18;12.20;90.00
58809;DHT22;44579;51.672;7.834;2023-04-01T16:49:51;12.20;90.00
58809;DHT22;44579;51.672;7.834;2023-04-01T16:55:33;12.30;89.90
58809;DHT22;44579;51.672;7.834;2023-04-01T16:57:52;12.30;89.90
58809;DHT22;44579;51.672;7.834;2023-04-01T17:00:30;12.30;89.80
58809;DHT22;44579;51.672;7.834;2023-04-01T17:06:08;12.30;89.70
58809;DHT22;44579;51.672;7.834;2023-04-01T17:11:19;12.30;89.60
58809;DHT22;44579;51.672;7.834;2023-04-01T17:16:43;12.30;89.50
58809;DHT22;44579;51.672;7.834;2023-04-01T17:22:04;12.20;89.50
58809;DHT22;44579;51.672;7.834;2023-04-01T17:28:03;12.20;89.50
58809;DHT22;44579;51.672;7.834;2023-04-01T17:30:12;12.20;89.50
58809;DHT22;44579;51.672;7.834;2023-04-01T17:32:51;12.10;89.80
58809;DHT22;44579;51.672;7.834;2023-04-01T17:35:32;12.10;89.60
58809;DHT22;44579;51.672;7.834;2023-04-01T17:38:09;12.10;89.60
58809;DHT22;44579;51.672;7.834;2023-04-01T17:43:50;12.10;89.60
58809;DHT22;44579;51.672;7.834;2023-04-01T17:46:24;12.10;89.50
58809;DHT22;44579;51.672;7.834;2023-04-01T17:49:11;12.10;89.50
58809;DHT22;44579;51.672;7.834;2023-04-01T17:51:42;12.10;89.50
58809;DHT22;44579;51.672;7.834;2023-04-01T17:57:07;12.10;89.40
58809;DHT22;44579;51.672;7.834;2023-04-01T18:07:42;12.10;89.40
58809;DHT22;44579;51.672;7.834;2023-04-01T18:13:01;12.10;89.30
58809;DHT22;44579;51.672;7.834;2023-04-01T18:21:33;12.10;89.20
58809;DHT22;44579;51.672;7.834;2023-04-01T18:23:36;12.10;89.20
58809;DHT22;44579;51.672;7.834;2023-04-01T18:26:10;12.10;89.20
58809;DHT22;44579;51.672;7.834;2023-04-01T18:28:41;12.10;89.30
58809;DHT22;44579;51.672;7.834;2023-04-01T18:31:16;12.10;89.30
58809;DHT22;44579;51.672;7.834;2023-04-01T18:44:56;12.10;89.20
58809;DHT22;44579;51.672;7.834;2023-04-01T18:47:24;12.10;89.20
58809;DHT22;44579;51.672;7.834;2023-04-01T18:52:37;12.10;89.30
58809;DHT22;44579;51.672;7.834;2023-04-01T18:57:39;12.00;89.40
58809;DHT22;44579;51.672;7.834;2023-04-01T19:00:14;12.00;89.40
58809;DHT22;44579;51.672;7.834;2023-04-01T19:02:44;12.00;89.40
58809;DHT22;44579;51.672;7.834;2023-04-01T19:05:13;12.00;89.40
58809;DHT22;44579;51.672;7.834;2023-04-01T19:07:47;12.00;89.50
58809;DHT22;44579;51.672;7.834;2023-04-01T19:13:04;12.00;89.50
58809;DHT22;44579;51.672;7.834;2023-04-01T19:20:59;12.00;89.30
58809;DHT22;44579;51.672;7.834;2023-04-01T19:25:58;12.10;89.40
58809;DHT22;44579;51.672;7.834;2023-04-01T19:34:21;12.00;89.40
58809;DHT22;44579;51.672;7.834;2023-04-01T19:36:59;12.00;89.40
58809;DHT22;44579;51.672;7.834;2023-04-01T19:42:24;11.90;89.60
58809;DHT22;44579;51.672;7.834;2023-04-01T19:52:39;10.90;92.70
58809;DHT22;44579;51.672;7.834;2023-04-01T19:55:13;10.70;93.30
58809;DHT22;44579;51.672;7.834;2023-04-01T19:57:46;10.60;93.50
58809;DHT22;44579;51.672;7.834;2023-04-01T20:00:22;10.50;93.60
58809;DHT22;44579;51.672;7.834;2023-04-01T20:05:44;10.40;93.90
58809;DHT22;44579;51.672;7.834;2023-04-01T20:10:46;10.30;93.90
58809;DHT22;44579;51.672;7.834;2023-04-01T20:13:19;10.30;93.90
58809;DHT22;44579;51.672;7.834;2023-04-01T20:15:55;10.20;94.20
58809;DHT22;44579;51.672;7.834;2023-04-01T20:18:44;10.10;94.30
58809;DHT22;44579;51.672;7.834;2023-04-01T20:21:27;10.00;94.40
58809;DHT22;44579;51.672;7.834;2023-04-01T20:23:59;10.00;94.50
58809;DHT22;44579;51.672;7.834;2023-04-01T20:26:37;9.90;94.40
58809;DHT22;44579;51.672;7.834;2023-04-01T20:29:23;9.90;94.40
58809;DHT22;44579;51.672;7.834;2023-04-01T20:32:10;9.80;94.30
58809;DHT22;44579;51.672;7.834;2023-04-01T20:37:31;9.60;94.50
58809;DHT22;44579;51.672;7.834;2023-04-01T20:42:34;9.60;94.60
58809;DHT22;44579;51.672;7.834;2023-04-01T20:50:29;9.50;94.60
58809;DHT22;44579;51.672;7.834;2023-04-01T20:53:05;9.40;94.70
58809;DHT22;44579;51.672;7.834;2023-04-01T21:03:45;9.20;94.90
58809;DHT22;44579;51.672;7.834;2023-04-01T21:06:25;9.20;95.00
58809;DHT22;44579;51.672;7.834;2023-04-01T21:09:09;9.10;95.00
58809;DHT22;44579;51.672;7.834;2023-04-01T21:11:41;9.20;95.00
58809;DHT22;44579;51.672;7.834;2023-04-01T21:25:03;9.00;95.20
58809;DHT22;44579;51.672;7.834;2023-04-01T21:27:42;9.00;95.20
58809;DHT22;44579;51.672;7.834;2023-04-01T21:35:55;8.90;95.20
58809;DHT22;44579;51.672;7.834;2023-04-01T21:43:29;8.80;95.30
58809;DHT22;44579;51.672;7.834;2023-04-01T21:54:18;8.70;95.60
58809;DHT22;44579;51.672;7.834;2023-04-01T21:56:54;8.70;95.50
58809;DHT22;44579;51.672;7.834;2023-04-01T21:59:29;8.70;95.50
58809;DHT22;44579;51.672;7.834;2023-04-01T22:08:04;8.80;95.40
58809;DHT22;44579;51.672;7.834;2023-04-01T22:13:23;8.50;95.40
58809;DHT22;44579;51.672;7.834;2023-04-01T22:18:33;8.50;95.50
58809;DHT22;44579;51.672;7.834;2023-04-01T22:21:09;8.40;95.50
58809;DHT22;44579;51.672;7.834;2023-04-01T22:23:42;8.40;95.50
58809;DHT22;44579;51.672;7.834;2023-04-01T22:28:58;8.30;95.70
58809;DHT22;44579;51.672;7.834;2023-04-01T22:31:39;8.20;95.70
58809;DHT22;44579;51.672;7.834;2023-04-01T22:34:19;8.20;95.70
58809;DHT22;44579;51.672;7.834;2023-04-01T22:39:23;8.20;95.60
58809;DHT22;44579;51.672;7.834;2023-04-01T22:42:05;8.20;95.70
58809;DHT22;44579;51.672;7.834;2023-04-01T22:44:57;8.20;95.60
58809;DHT22;44579;51.672;7.834;2023-04-01T22:50:18;8.20;95.50
58809;DHT22;44579;51.672;7.834;2023-04-01T22:52:47;8.20;95.50
58809;DHT22;44579;51.672;7.834;2023-04-01T22:55:18;8.20;95.50
58809;DHT22;44579;51.672;7.834;2023-04-01T22:57:52;8.20;95.40
58809;DHT22;44579;51.672;7.834;2023-04-01T23:00:22;8.20;95.40
58809;DHT22;44579;51.672;7.834;2023-04-01T23:03:03;8.20;95.40
58809;DHT22;44579;51.672;7.834;2023-04-01T23:05:31;8.20;95.40
58809;DHT22;44579;51.672;7.834;2023-04-01T23:08:07;8.20;95.40
58809;DHT22;44579;51.672;7.834;2023-04-01T23:10:56;8.20;95.30
58809;DHT22;44579;51.672;7.834;2023-04-01T23:13:29;8.30;95.30
58809;DHT22;44579;51.672;7.834;2023-04-01T23:15:58;8.20;95.20
58809;DHT22;44579;51.672;7.834;2023-04-01T23:21:18;8.20;95.20
58809;DHT22;44579;51.672;7.834;2023-04-01T23:23:50;8.20;95.20
58809;DHT22;44579;51.672;7.834;2023-04-01T23:28:52;8.00;95.00
58809;DHT22;44579;51.672;7.834;2023-04-01T23:34:23;7.90;95.10
58809;DHT22;44579;51.672;7.834;2023-04-01T23:36:55;7.90;95.00
58809;DHT22;44579;51.672;7.834;2023-04-01T23:39:59;7.90;95.00
58809;DHT22;44579;51.672;7.834;2023-04-01T23:42:31;7.90;94.90
58809;DHT22;44579;51.672;7.834;2023-04-01T23:45:03;7.90;94.80
58809;DHT22;44579;51.672;7.834;2023-04-01T23:47:35;7.80;94.80
58809;DHT22;44579;51.672;7.834;2023-04-01T23:50:14;7.80;94.80
58809;DHT22;44579;51.672;7.834;2023-04-01T23:52:43;7.80;94.80
58809;DHT22;44579;51.672;7.834;2023-04-01T23:55:28;7.70;94.70
